createdAt,value
2019-01-31T00:01:41.950Z,99572.61
2019-01-31T00:04:43.605Z,99572.36
2019-01-31T00:07:42.674Z,99577.94
2019-01-31T00:10:53.319Z,99573.78
2019-01-31T00:13:50.978Z,99578.09
2019-01-31T00:16:46.436Z,99584.83
2019-01-31T00:19:45.602Z,99575.23
2019-01-31T00:23:05.786Z,99571.05
2019-01-31T00:26:34.381Z,99573.38
2019-01-31T00:29:38.584Z,99568.49
2019-01-31T00:32:47.682Z,99571.50
2019-01-31T00:35:35.620Z,99570.34
2019-01-31T00:38:37.173Z,99565.19
2019-01-31T00:42:05.907Z,99572.23
2019-01-31T00:45:01.938Z,99569.33
2019-01-31T00:48:09.274Z,99572.98
2019-01-31T00:50:53.508Z,99568.58
2019-01-31T00:53:41.468Z,99569.20
2019-01-31T00:56:54.752Z,99573.84
2019-01-31T01:00:00.425Z,99573.36
2019-01-31T01:03:12.459Z,99569.78
2019-01-31T01:06:11.896Z,99573.97
2019-01-31T01:09:07.764Z,99569.03
2019-01-31T01:11:52.985Z,99576.47
2019-01-31T01:15:09.168Z,99577.41
2019-01-31T01:17:49.702Z,99577.47
2019-01-31T01:21:06.158Z,99578.73
2019-01-31T01:24:04.109Z,99581.73
2019-01-31T01:27:11.035Z,99586.41
2019-01-31T01:30:01.291Z,99588.73
2019-01-31T01:33:11.033Z,99582.06
2019-01-31T01:36:06.309Z,99590.75
2019-01-31T01:39:19.750Z,99594.30
2019-01-31T01:42:26.490Z,99587.88
2019-01-31T01:45:25.789Z,99589.04
2019-01-31T01:48:32.310Z,99596.40
2019-01-31T01:51:26.558Z,99600.88
2019-01-31T01:54:26.014Z,99595.45
2019-01-31T01:57:32.245Z,99595.86
2019-01-31T02:00:21.392Z,99596.30
2019-01-31T02:03:53.280Z,99596.69
2019-01-31T02:06:39.656Z,99589.90
2019-01-31T02:09:33.556Z,99595.45
2019-01-31T02:12:59.201Z,99594.70
2019-01-31T02:16:03.614Z,99599.02
2019-01-31T02:18:42.650Z,99601.59
2019-01-31T02:21:40.569Z,99601.27
2019-01-31T02:24:25.491Z,99598.03
2019-01-31T02:27:12.962Z,99601.81
2019-01-31T02:29:58.618Z,99603.91
2019-01-31T02:33:18.328Z,99596.70
2019-01-31T02:36:44.151Z,99607.69
2019-01-31T02:39:44.571Z,99598.64
2019-01-31T02:42:57.050Z,99601.81
2019-01-31T02:46:06.033Z,99602.59
2019-01-31T02:48:58.393Z,99599.09
2019-01-31T02:52:20.709Z,99603.14
2019-01-31T02:55:10.522Z,99600.02
2019-01-31T02:58:04.909Z,99609.73
2019-01-31T03:00:55.423Z,99609.11
2019-01-31T03:03:50.940Z,99608.70
2019-01-31T03:07:01.778Z,99611.58
2019-01-31T03:09:55.919Z,99618.23
2019-01-31T03:12:46.232Z,99610.86
2019-01-31T03:15:42.486Z,99611.87
2019-01-31T03:18:28.787Z,99608.31
2019-01-31T03:21:31.856Z,99617.23
2019-01-31T03:24:34.374Z,99616.37
2019-01-31T03:27:29.789Z,99611.09
2019-01-31T03:30:55.472Z,99615.03
2019-01-31T03:33:53.546Z,99615.80
2019-01-31T03:37:15.733Z,99621.16
2019-01-31T03:40:24.454Z,99626.97
2019-01-31T03:43:27.018Z,99627.92
2019-01-31T03:46:27.906Z,99626.54
2019-01-31T03:49:41.302Z,99632.33
2019-01-31T03:52:50.489Z,99626.63
2019-01-31T03:55:40.586Z,99632.89
2019-01-31T03:58:39.387Z,99629.72
2019-01-31T04:01:49.134Z,99634.36
2019-01-31T04:04:26.389Z,99637.94
2019-01-31T04:06:56.937Z,99641.34
2019-01-31T04:09:29.992Z,99641.50
2019-01-31T04:12:00.374Z,99645.52
2019-01-31T04:14:30.499Z,99651.56
2019-01-31T04:17:00.643Z,99652.50
2019-01-31T04:19:31.347Z,99649.16
2019-01-31T04:22:00.744Z,99653.49
2019-01-31T04:24:30.886Z,99663.50
2019-01-31T04:27:01.603Z,99663.34
2019-01-31T04:29:31.029Z,99665.97
2019-01-31T04:32:01.036Z,99668.52
2019-01-31T04:34:30.413Z,99670.23
2019-01-31T04:37:00.791Z,99670.41
2019-01-31T04:39:30.665Z,99680.22
2019-01-31T04:42:00.499Z,99688.45
2019-01-31T04:44:30.317Z,99676.81
2019-01-31T04:47:00.581Z,99673.31
2019-01-31T04:49:30.393Z,99679.93
2019-01-31T04:52:02.227Z,99673.80
2019-01-31T04:54:33.024Z,99679.31
2019-01-31T04:57:04.044Z,99680.63
2019-01-31T04:59:33.424Z,99685.27
2019-01-31T05:02:03.928Z,99683.73
2019-01-31T05:04:34.810Z,99681.47
2019-01-31T05:07:04.295Z,99692.09
2019-01-31T05:09:34.001Z,99691.09
2019-01-31T05:12:03.411Z,99693.03
2019-01-31T05:14:32.804Z,99694.35
2019-01-31T05:17:02.444Z,99695.97
2019-01-31T05:19:31.818Z,99698.98
2019-01-31T05:22:02.323Z,99695.89
2019-01-31T05:24:33.412Z,99698.28
2019-01-31T05:27:04.496Z,99704.30
2019-01-31T05:29:35.080Z,99695.70
2019-01-31T05:32:05.774Z,99695.95
2019-01-31T05:34:35.198Z,99691.23
2019-01-31T05:37:04.740Z,99695.52
2019-01-31T05:39:36.018Z,99698.83
2019-01-31T05:42:08.377Z,99700.47
2019-01-31T05:44:37.783Z,99704.17
2019-01-31T05:47:07.278Z,99692.47
2019-01-31T05:49:36.700Z,99691.47
2019-01-31T05:52:06.237Z,99692.42
2019-01-31T05:54:35.667Z,99699.70
2019-01-31T05:57:05.036Z,99701.80
2019-01-31T05:59:34.413Z,99698.05
2019-01-31T06:02:03.991Z,99707.85
2019-01-31T06:04:33.346Z,99705.91
2019-01-31T06:07:10.938Z,99711.55
2019-01-31T06:09:35.730Z,99717.61
2019-01-31T06:12:06.261Z,99714.59
2019-01-31T06:14:37.171Z,99713.95
2019-01-31T06:17:08.503Z,99715.19
2019-01-31T06:19:39.792Z,99712.56
2019-01-31T06:22:11.057Z,99714.05
2019-01-31T06:24:40.668Z,99717.59
2019-01-31T06:27:11.934Z,99717.67
2019-01-31T06:29:41.701Z,99720.06
2019-01-31T06:32:11.225Z,99720.71
2019-01-31T06:34:40.754Z,99719.23
2019-01-31T06:37:10.188Z,99723.48
2019-01-31T06:39:41.442Z,99725.41
2019-01-31T06:42:13.817Z,99728.45
2019-01-31T06:44:43.231Z,99727.59
2019-01-31T06:47:12.656Z,99725.66
2019-01-31T06:49:42.055Z,99726.81
2019-01-31T06:52:11.443Z,99733.16
2019-01-31T06:54:40.986Z,99729.20
2019-01-31T06:57:13.383Z,99734.39
2019-01-31T06:59:42.898Z,99738.42
2019-01-31T07:02:13.429Z,99737.22
2019-01-31T07:04:42.822Z,99742.25
2019-01-31T07:07:13.321Z,99735.87
2019-01-31T07:09:42.783Z,99742.37
2019-01-31T07:12:12.194Z,99745.42
2019-01-31T07:14:41.690Z,99751.14
2019-01-31T07:17:13.747Z,99751.44
2019-01-31T07:19:44.974Z,99747.81
2019-01-31T07:22:17.683Z,99752.22
2019-01-31T07:24:47.248Z,99752.01
2019-01-31T07:27:16.740Z,99751.39
2019-01-31T07:29:46.259Z,99757.44
2019-01-31T07:32:15.858Z,99759.78
2019-01-31T07:34:47.113Z,99759.78
2019-01-31T07:37:20.210Z,99758.19
2019-01-31T07:39:49.768Z,99757.60
2019-01-31T07:42:19.164Z,99763.49
2019-01-31T07:44:48.573Z,99763.33
2019-01-31T07:47:18.292Z,99772.47
2019-01-31T07:49:49.141Z,99772.47
2019-01-31T07:52:19.086Z,99764.73
2019-01-31T07:54:48.560Z,99770.94
2019-01-31T07:57:18.965Z,99779.22
2019-01-31T07:59:48.394Z,99779.22
2019-01-31T08:02:18.013Z,99767.20
2019-01-31T08:04:47.546Z,99771.44
2019-01-31T08:07:18.441Z,99773.02
2019-01-31T08:09:47.968Z,99783.39
2019-01-31T08:12:17.404Z,99776.27
2019-01-31T08:14:46.816Z,99777.91
2019-01-31T08:17:16.320Z,99780.63
2019-01-31T08:19:45.759Z,99779.63
2019-01-31T08:22:15.152Z,99782.89
2019-01-31T08:24:47.881Z,99789.39
2019-01-31T08:27:17.308Z,99788.24
2019-01-31T08:29:47.845Z,99796.39
2019-01-31T08:32:17.320Z,99799.73
2019-01-31T08:34:46.895Z,99799.86
2019-01-31T08:37:17.692Z,99801.05
2019-01-31T08:39:47.403Z,99806.61
2019-01-31T08:42:16.824Z,99803.92
2019-01-31T08:44:46.231Z,99806.86
2019-01-31T08:47:15.822Z,99810.59
2019-01-31T08:49:45.228Z,99816.00
2019-01-31T08:52:14.627Z,99817.27
2019-01-31T08:54:44.099Z,99824.16
2019-01-31T08:57:14.930Z,99827.60
2019-01-31T08:59:44.370Z,99831.31
2019-01-31T09:02:13.829Z,99830.53
2019-01-31T09:04:43.246Z,99829.93
2019-01-31T09:07:14.493Z,99835.36
2019-01-31T09:09:45.085Z,99836.28
2019-01-31T09:12:15.585Z,99837.69
2019-01-31T09:14:45.365Z,99837.21
2019-01-31T09:17:15.856Z,99836.54
2019-01-31T09:19:45.286Z,99836.17
2019-01-31T09:22:30.038Z,99839.44
2019-01-31T09:25:45.382Z,99838.38
2019-01-31T09:29:02.032Z,99840.39
2019-01-31T09:32:34.815Z,99841.86
2019-01-31T09:35:37.704Z,99845.50
2019-01-31T09:38:47.269Z,99848.45
2019-01-31T09:41:53.058Z,99853.20
2019-01-31T09:45:06.769Z,99852.03
2019-01-31T09:48:00.600Z,99857.86
2019-01-31T09:51:07.485Z,99853.97
2019-01-31T09:54:17.930Z,99861.44
2019-01-31T09:57:46.517Z,99861.72
2019-01-31T10:00:29.397Z,99863.73
2019-01-31T10:03:38.785Z,99863.89
2019-01-31T10:06:31.255Z,99863.22
2019-01-31T10:09:57.101Z,99868.62
2019-01-31T10:13:13.570Z,99873.75
2019-01-31T10:16:15.236Z,99874.61
2019-01-31T10:19:16.039Z,99874.22
2019-01-31T10:22:08.085Z,99878.03
2019-01-31T10:25:02.242Z,99876.07
2019-01-31T10:27:56.849Z,99879.96
2019-01-31T10:30:57.581Z,99876.17
2019-01-31T10:33:58.833Z,99882.75
2019-01-31T10:36:51.580Z,99883.86
2019-01-31T10:39:38.715Z,99881.69
2019-01-31T10:42:50.537Z,99878.95
2019-01-31T10:45:59.541Z,99878.17
2019-01-31T10:49:05.790Z,99879.59
2019-01-31T10:52:11.862Z,99872.98
2019-01-31T10:55:22.088Z,99872.73
2019-01-31T10:58:35.216Z,99876.45
2019-01-31T11:02:07.435Z,99878.73
2019-01-31T11:05:35.840Z,99874.73
2019-01-31T11:08:55.377Z,99879.94
2019-01-31T11:12:11.923Z,99888.89
2019-01-31T11:14:58.894Z,99885.11
2019-01-31T11:18:04.820Z,99888.47
2019-01-31T11:21:12.537Z,99895.54
2019-01-31T11:24:08.872Z,99889.62
2019-01-31T11:27:14.184Z,99893.38
2019-01-31T11:30:21.643Z,99894.66
2019-01-31T11:33:31.669Z,99891.30
2019-01-31T11:36:47.152Z,99896.56
2019-01-31T11:39:47.640Z,99893.90
2019-01-31T11:43:11.320Z,99890.66
2019-01-31T11:46:10.387Z,99896.97
2019-01-31T11:49:23.991Z,99899.59
2019-01-31T11:52:22.580Z,99897.83
2019-01-31T11:55:32.790Z,99899.81
2019-01-31T11:58:20.523Z,99901.50
2019-01-31T12:00:52.902Z,99901.87
2019-01-31T12:03:21.501Z,99899.55
2019-01-31T12:05:51.119Z,99894.09
2019-01-31T12:08:20.593Z,99900.06
2019-01-31T12:10:51.521Z,99897.74
2019-01-31T12:13:23.947Z,99886.04
2019-01-31T12:15:55.853Z,99886.54
2019-01-31T12:18:25.536Z,99888.04
2019-01-31T12:20:55.173Z,99886.59
2019-01-31T12:23:24.605Z,99882.08
2019-01-31T12:25:55.191Z,99881.34
2019-01-31T12:28:26.424Z,99889.77
2019-01-31T12:30:56.952Z,99893.41
2019-01-31T12:33:26.556Z,99881.28
2019-01-31T12:35:57.331Z,99885.77
2019-01-31T12:38:36.468Z,99883.81
2019-01-31T12:40:58.123Z,99882.80
2019-01-31T12:43:34.826Z,99887.44
2019-01-31T12:45:58.954Z,99874.13
2019-01-31T12:48:28.775Z,99872.05
2019-01-31T12:50:58.238Z,99872.09
2019-01-31T12:53:30.371Z,99880.80
2019-01-31T12:55:59.843Z,99873.88
2019-01-31T12:58:33.740Z,99876.64
2019-01-31T13:01:01.810Z,99870.17
2019-01-31T13:03:31.730Z,99866.77
2019-01-31T13:06:03.357Z,99864.16
2019-01-31T13:08:32.868Z,99866.02
2019-01-31T13:11:02.323Z,99871.63
2019-01-31T13:13:32.043Z,99872.73
2019-01-31T13:16:01.972Z,99880.08
2019-01-31T13:18:31.779Z,99871.39
2019-01-31T13:21:01.979Z,99875.81
2019-01-31T13:23:33.200Z,99872.30
2019-01-31T13:26:03.722Z,99869.78
2019-01-31T13:28:35.452Z,99875.98
2019-01-31T13:31:05.087Z,99879.39
2019-01-31T13:33:34.818Z,99882.52
2019-01-31T13:36:05.914Z,99882.30
2019-01-31T13:38:36.529Z,99881.11
2019-01-31T13:41:05.993Z,99878.48
2019-01-31T13:43:35.712Z,99878.02
2019-01-31T13:46:05.899Z,99878.79
2019-01-31T13:48:35.323Z,99873.77
2019-01-31T13:51:07.909Z,99878.33
2019-01-31T13:53:39.263Z,99872.33
2019-01-31T13:56:11.407Z,99873.34
2019-01-31T13:58:41.014Z,99874.73
2019-01-31T14:01:10.615Z,99874.20
2019-01-31T14:03:43.719Z,99877.84
2019-01-31T14:06:14.317Z,99876.12
2019-01-31T14:08:44.923Z,99874.05
2019-01-31T14:11:14.327Z,99871.55
2019-01-31T14:13:45.385Z,99872.50
2019-01-31T14:16:17.766Z,99870.72
2019-01-31T14:18:47.554Z,99870.87
2019-01-31T14:21:17.244Z,99876.01
2019-01-31T14:23:47.745Z,99869.81
2019-01-31T14:26:18.465Z,99873.91
2019-01-31T14:28:48.971Z,99871.91
2019-01-31T14:31:18.397Z,99879.05
2019-01-31T14:33:50.928Z,99875.32
2019-01-31T14:36:21.128Z,99873.91
2019-01-31T14:38:50.529Z,99871.36
2019-01-31T14:41:23.012Z,99881.38
2019-01-31T14:43:52.628Z,99884.34
2019-01-31T14:46:22.349Z,99878.73
2019-01-31T14:48:51.640Z,99883.79
2019-01-31T14:51:22.567Z,99885.95
2019-01-31T14:53:54.973Z,99884.34
2019-01-31T14:56:24.476Z,99887.69
2019-01-31T14:58:54.188Z,99884.42
2019-01-31T15:01:23.694Z,99885.80
2019-01-31T15:03:55.329Z,99879.56
2019-01-31T15:06:26.348Z,99880.43
2019-01-31T15:08:55.772Z,99885.58
2019-01-31T15:11:25.356Z,99886.80
2019-01-31T15:13:55.123Z,99884.02
2019-01-31T15:16:24.571Z,99884.02
2019-01-31T15:18:54.042Z,99880.46
2019-01-31T15:21:23.657Z,99885.59
2019-01-31T15:23:53.163Z,99884.68
2019-01-31T15:26:22.773Z,99894.16
2019-01-31T15:28:52.491Z,99888.17
2019-01-31T15:31:23.399Z,99890.81
2019-01-31T15:33:52.865Z,99888.27
2019-01-31T15:36:24.393Z,99884.77
2019-01-31T15:38:53.828Z,99884.93
2019-01-31T15:41:23.218Z,99886.16
2019-01-31T15:43:52.909Z,99887.31
2019-01-31T15:46:22.404Z,99885.53
2019-01-31T15:48:52.122Z,99891.68
2019-01-31T15:51:21.704Z,99883.22
2019-01-31T15:53:51.112Z,99883.22
2019-01-31T15:56:20.604Z,99892.55
2019-01-31T15:58:50.242Z,99892.69
2019-01-31T16:01:20.205Z,99891.08
2019-01-31T16:03:51.267Z,99887.94
2019-01-31T16:06:22.324Z,99896.41
2019-01-31T16:08:51.723Z,99888.28
2019-01-31T16:11:21.196Z,99893.02
2019-01-31T16:13:50.634Z,99893.80
2019-01-31T16:16:22.562Z,99898.20
2019-01-31T16:18:53.793Z,99889.38
2019-01-31T16:21:27.221Z,99890.00
2019-01-31T16:23:57.847Z,99895.33
2019-01-31T16:26:27.353Z,99909.94
2019-01-31T16:28:56.809Z,99904.01
2019-01-31T16:31:26.244Z,99907.80
2019-01-31T16:33:56.963Z,99912.00
2019-01-31T16:36:26.622Z,99906.02
2019-01-31T16:38:57.874Z,99904.38
2019-01-31T16:41:28.758Z,99897.78
2019-01-31T16:43:59.878Z,99895.35
2019-01-31T16:46:29.401Z,99903.58
2019-01-31T16:48:59.852Z,99908.91
2019-01-31T16:51:32.307Z,99914.54
2019-01-31T16:54:01.728Z,99909.06
2019-01-31T16:56:33.058Z,99910.66
2019-01-31T16:59:03.073Z,99913.05
2019-01-31T17:01:34.776Z,99910.36
2019-01-31T17:04:04.516Z,99910.39
2019-01-31T17:06:35.581Z,99912.16
2019-01-31T17:09:08.160Z,99910.22
2019-01-31T17:11:39.447Z,99911.20
2019-01-31T17:14:09.206Z,99914.88
2019-01-31T17:16:39.768Z,99917.92
2019-01-31T17:19:10.479Z,99917.08
2019-01-31T17:21:40.097Z,99915.55
2019-01-31T17:24:09.564Z,99920.86
2019-01-31T17:26:39.398Z,99917.77
2019-01-31T17:29:10.148Z,99917.51
2019-01-31T17:31:39.643Z,99921.88
2019-01-31T17:34:09.043Z,99924.87
2019-01-31T17:36:38.519Z,99921.33
2019-01-31T17:39:10.274Z,99920.88
2019-01-31T17:41:39.812Z,99913.39
2019-01-31T17:44:09.496Z,99914.56
2019-01-31T17:46:38.948Z,99918.52
2019-01-31T17:49:10.366Z,99918.02
2019-01-31T17:51:40.140Z,99929.94
2019-01-31T17:54:11.435Z,99922.56
2019-01-31T17:56:40.818Z,99924.27
2019-01-31T17:59:10.300Z,99923.80
2019-01-31T18:01:39.767Z,99923.16
2019-01-31T18:04:12.388Z,99917.97
2019-01-31T18:06:42.259Z,99921.70
2019-01-31T18:09:13.678Z,99918.95
2019-01-31T18:11:43.115Z,99915.80
2019-01-31T18:14:12.899Z,99919.22
2019-01-31T18:16:42.331Z,99920.53
2019-01-31T18:19:13.559Z,99915.48
2019-01-31T18:21:44.275Z,99918.94
2019-01-31T18:24:15.003Z,99917.63
2019-01-31T18:26:44.431Z,99915.20
2019-01-31T18:29:14.093Z,99907.56
2019-01-31T18:31:43.629Z,99910.85
2019-01-31T18:34:13.085Z,99908.50
2019-01-31T18:36:45.764Z,99911.73
2019-01-31T18:39:16.236Z,99910.22
2019-01-31T18:41:45.662Z,99906.27
2019-01-31T18:44:15.159Z,99905.72
2019-01-31T18:46:46.412Z,99899.55
2019-01-31T18:49:18.714Z,99901.05
2019-01-31T18:51:48.259Z,99903.75
2019-01-31T18:54:20.438Z,99899.35
2019-01-31T18:56:51.532Z,99898.62
2019-01-31T18:59:21.230Z,99898.81
2019-01-31T19:01:50.644Z,99894.48
2019-01-31T19:04:20.076Z,99886.50
2019-01-31T19:06:49.753Z,99888.75
2019-01-31T19:09:19.586Z,99886.78
2019-01-31T19:11:48.989Z,99890.97
2019-01-31T19:14:18.553Z,99885.91
2019-01-31T19:16:48.004Z,99886.78
2019-01-31T19:19:17.448Z,99894.26
2019-01-31T19:21:49.921Z,99891.05
2019-01-31T19:24:19.424Z,99890.31
2019-01-31T19:26:50.078Z,99891.55
2019-01-31T19:29:21.164Z,99889.00
2019-01-31T19:31:50.663Z,99891.25
2019-01-31T19:34:20.132Z,99893.80
2019-01-31T19:36:53.539Z,99894.73
2019-01-31T19:39:23.030Z,99895.84
2019-01-31T19:41:52.568Z,99894.80
2019-01-31T19:44:23.490Z,99901.56
2019-01-31T19:46:54.787Z,99897.88
2019-01-31T19:49:24.229Z,99899.72
2019-01-31T19:51:53.794Z,99901.52
2019-01-31T19:54:23.223Z,99899.45
2019-01-31T19:56:54.170Z,99897.61
2019-01-31T19:59:23.604Z,99896.44
2019-01-31T20:01:53.196Z,99896.47
2019-01-31T20:04:22.581Z,99889.20
2019-01-31T20:06:54.976Z,99895.30
2019-01-31T20:09:28.308Z,99889.07
2019-01-31T20:11:57.699Z,99891.70
2019-01-31T20:14:27.933Z,99894.23
2019-01-31T20:16:59.002Z,99895.16
2019-01-31T20:19:28.402Z,99892.42
2019-01-31T20:21:59.636Z,99902.98
2019-01-31T20:24:30.216Z,99891.84
2019-01-31T20:26:59.598Z,99893.70
2019-01-31T20:29:30.457Z,99896.95
2019-01-31T20:32:00.009Z,99890.76
2019-01-31T20:34:30.610Z,99889.55
2019-01-31T20:37:00.337Z,99895.78
2019-01-31T20:39:32.853Z,99900.00
2019-01-31T20:42:03.362Z,99897.54
2019-01-31T20:44:33.025Z,99902.34
2019-01-31T20:47:02.473Z,99892.28
2019-01-31T20:49:31.932Z,99896.15
2019-01-31T20:52:01.556Z,99903.45
2019-01-31T20:54:33.420Z,99904.03
2019-01-31T20:57:02.833Z,99900.61
2019-01-31T20:59:32.574Z,99898.84
2019-01-31T21:02:03.854Z,99901.84
2019-01-31T21:04:37.244Z,99906.55
2019-01-31T21:07:06.190Z,99902.05
2019-01-31T21:09:35.604Z,99902.09
2019-01-31T21:12:06.121Z,99898.62
2019-01-31T21:14:38.547Z,99900.77
2019-01-31T21:17:08.623Z,99896.17
2019-01-31T21:19:39.263Z,99905.02
2019-01-31T21:22:09.109Z,99893.73
2019-01-31T21:24:38.564Z,99892.80
2019-01-31T21:27:09.317Z,99895.72
2019-01-31T21:29:38.921Z,99896.36
2019-01-31T21:32:08.404Z,99894.77
2019-01-31T21:34:38.208Z,99892.59
2019-01-31T21:37:08.246Z,99891.64
2019-01-31T21:39:39.181Z,99884.04
2019-01-31T21:42:09.585Z,99882.80
2019-01-31T21:44:39.359Z,99883.31
2019-01-31T21:47:08.952Z,99876.84
2019-01-31T21:49:43.120Z,99877.20
2019-01-31T21:52:14.135Z,99877.48
2019-01-31T21:54:43.624Z,99873.48
2019-01-31T21:57:13.088Z,99871.92
2019-01-31T21:59:43.678Z,99874.19
2019-01-31T22:02:14.146Z,99872.44
2019-01-31T22:04:44.688Z,99872.81
2019-01-31T22:07:14.158Z,99875.66
2019-01-31T22:09:43.654Z,99872.59
2019-01-31T22:12:13.192Z,99867.86
2019-01-31T22:14:42.706Z,99873.97
2019-01-31T22:17:14.791Z,99873.52
2019-01-31T22:19:45.059Z,99867.12
2019-01-31T22:22:16.626Z,99866.31
2019-01-31T22:24:47.488Z,99862.06
2019-01-31T22:27:17.074Z,99862.50
2019-01-31T22:29:47.807Z,99863.08
2019-01-31T22:32:17.312Z,99860.62
2019-01-31T22:34:46.801Z,99861.06
2019-01-31T22:37:16.478Z,99858.63
2019-01-31T22:39:46.077Z,99861.48
2019-01-31T22:42:17.052Z,99861.58
2019-01-31T22:44:47.504Z,99859.66
2019-01-31T22:47:25.668Z,99857.13
2019-01-31T22:49:48.355Z,99852.07
2019-01-31T22:52:18.006Z,99855.14
2019-01-31T22:54:47.407Z,99850.73
2019-01-31T22:57:17.030Z,99855.59
2019-01-31T22:59:48.470Z,99851.27
2019-01-31T23:02:17.986Z,99849.22
2019-01-31T23:04:48.842Z,99854.28
2019-01-31T23:07:18.341Z,99852.39
2019-01-31T23:09:47.783Z,99848.39
2019-01-31T23:12:17.235Z,99845.67
2019-01-31T23:14:46.715Z,99844.64
2019-01-31T23:17:16.158Z,99846.24
2019-01-31T23:19:46.996Z,99849.54
2019-01-31T23:22:16.435Z,99845.16
2019-01-31T23:24:46.086Z,99844.64
2019-01-31T23:27:17.160Z,99841.95
2019-01-31T23:29:46.566Z,99837.06
2019-01-31T23:32:16.069Z,99833.41
2019-01-31T23:34:45.536Z,99833.28
2019-01-31T23:37:16.113Z,99841.63
2019-01-31T23:39:45.565Z,99834.59
2019-01-31T23:42:15.342Z,99834.78
2019-01-31T23:44:44.773Z,99833.52
2019-01-31T23:47:15.752Z,99830.11
2019-01-31T23:49:45.397Z,99823.32
2019-01-31T23:52:15.892Z,99818.73
2019-01-31T23:54:47.130Z,99813.61
2019-01-31T23:57:18.276Z,99820.85
2019-01-31T23:59:47.715Z,99822.10
